sensor_id;sensor_type;location;lat;lon;timestamp;P1;durP1;ratioP1;P2;durP2;ratioP2
1140;SDS011;559;48.628;8.924;2022-09-12T00:01:18;89.75;;;83.53;;
1140;SDS011;559;48.628;8.924;2022-09-12T00:03:45;95.63;;;89.32;;
1140;SDS011;559;48.628;8.924;2022-09-12T00:06:13;89.38;;;83.18;;
1140;SDS011;559;48.628;8.924;2022-09-12T00:08:41;91.38;;;85.07;;
1140;SDS011;559;48.628;8.924;2022-09-12T00:11:09;92.75;;;86.55;;
1140;SDS011;559;48.628;8.924;2022-09-12T00:13:36;91.18;;;85.07;;
1140;SDS011;559;48.628;8.924;2022-09-12T00:16:04;93.35;;;87.22;;
1140;SDS011;559;48.628;8.924;2022-09-12T00:18:32;90.43;;;84.43;;
1140;SDS011;559;48.628;8.924;2022-09-12T00:21:01;88.13;;;82.13;;
1140;SDS011;559;48.628;8.924;2022-09-12T00:23:28;90.38;;;84.47;;
1140;SDS011;559;48.628;8.924;2022-09-12T00:25:55;92.53;;;86.45;;
1140;SDS011;559;48.628;8.924;2022-09-12T00:28:21;89.32;;;83.32;;
1140;SDS011;559;48.628;8.924;2022-09-12T00:30:48;89.70;;;83.53;;
1140;SDS011;559;48.628;8.924;2022-09-12T00:33:15;93.55;;;87.15;;
1140;SDS011;559;48.628;8.924;2022-09-12T00:35:44;90.97;;;84.47;;
1140;SDS011;559;48.628;8.924;2022-09-12T00:38:12;93.38;;;87.07;;
1140;SDS011;559;48.628;8.924;2022-09-12T00:40:39;93.43;;;87.20;;
1140;SDS011;559;48.628;8.924;2022-09-12T00:43:08;89.00;;;82.80;;
1140;SDS011;559;48.628;8.924;2022-09-12T00:45:37;91.95;;;85.75;;
1140;SDS011;559;48.628;8.924;2022-09-12T00:48:03;92.95;;;86.75;;
1140;SDS011;559;48.628;8.924;2022-09-12T00:50:30;98.35;;;91.85;;
1140;SDS011;559;48.628;8.924;2022-09-12T00:53:01;96.22;;;89.70;;
1140;SDS011;559;48.628;8.924;2022-09-12T00:55:30;97.22;;;90.75;;
1140;SDS011;559;48.628;8.924;2022-09-12T00:58:01;93.28;;;87.25;;
1140;SDS011;559;48.628;8.924;2022-09-12T01:00:30;92.72;;;86.72;;
1140;SDS011;559;48.628;8.924;2022-09-12T01:02:59;95.60;;;89.30;;
1140;SDS011;559;48.628;8.924;2022-09-12T01:05:27;90.57;;;84.53;;
1140;SDS011;559;48.628;8.924;2022-09-12T01:07:54;97.53;;;91.22;;
1140;SDS011;559;48.628;8.924;2022-09-12T01:10:23;93.05;;;86.43;;
1140;SDS011;559;48.628;8.924;2022-09-12T01:12:50;89.85;;;83.25;;
1140;SDS011;559;48.628;8.924;2022-09-12T01:15:16;88.97;;;82.78;;
1140;SDS011;559;48.628;8.924;2022-09-12T01:17:47;89.20;;;82.97;;
1140;SDS011;559;48.628;8.924;2022-09-12T01:20:28;89.68;;;83.65;;
1140;SDS011;559;48.628;8.924;2022-09-12T01:23:09;89.47;;;83.35;;
1140;SDS011;559;48.628;8.924;2022-09-12T01:25:49;91.95;;;85.90;;
1140;SDS011;559;48.628;8.924;2022-09-12T01:28:40;86.20;;;80.30;;
1140;SDS011;559;48.628;8.924;2022-09-12T01:31:19;92.57;;;86.47;;
1140;SDS011;559;48.628;8.924;2022-09-12T01:33:53;93.22;;;86.78;;
1140;SDS011;559;48.628;8.924;2022-09-12T01:36:31;93.78;;;87.28;;
1140;SDS011;559;48.628;8.924;2022-09-12T01:39:02;95.60;;;89.10;;
1140;SDS011;559;48.628;8.924;2022-09-12T01:41:34;92.25;;;86.05;;
1140;SDS011;559;48.628;8.924;2022-09-12T01:44:08;87.10;;;80.80;;
1140;SDS011;559;48.628;8.924;2022-09-12T01:46:42;86.03;;;79.93;;
1140;SDS011;559;48.628;8.924;2022-09-12T01:49:14;89.38;;;83.25;;
1140;SDS011;559;48.628;8.924;2022-09-12T01:51:43;88.93;;;82.72;;
1140;SDS011;559;48.628;8.924;2022-09-12T01:54:18;88.40;;;82.30;;
1140;SDS011;559;48.628;8.924;2022-09-12T01:56:46;84.60;;;78.70;;
1140;SDS011;559;48.628;8.924;2022-09-12T01:59:15;88.43;;;82.22;;
1140;SDS011;559;48.628;8.924;2022-09-12T02:01:46;85.63;;;79.63;;
1140;SDS011;559;48.628;8.924;2022-09-12T02:04:19;86.45;;;80.50;;
1140;SDS011;559;48.628;8.924;2022-09-12T02:06:49;86.28;;;80.28;;
1140;SDS011;559;48.628;8.924;2022-09-12T02:09:18;85.53;;;79.63;;
1140;SDS011;559;48.628;8.924;2022-09-12T02:11:46;86.18;;;80.07;;
1140;SDS011;559;48.628;8.924;2022-09-12T02:14:16;90.53;;;84.43;;
1140;SDS011;559;48.628;8.924;2022-09-12T02:16:48;86.13;;;79.95;;
1140;SDS011;559;48.628;8.924;2022-09-12T02:19:17;87.05;;;81.05;;
1140;SDS011;559;48.628;8.924;2022-09-12T02:21:45;92.32;;;85.90;;
1140;SDS011;559;48.628;8.924;2022-09-12T02:24:15;87.22;;;81.22;;
1140;SDS011;559;48.628;8.924;2022-09-12T02:26:44;96.80;;;90.45;;
1140;SDS011;559;48.628;8.924;2022-09-12T02:29:13;91.72;;;85.53;;
1140;SDS011;559;48.628;8.924;2022-09-12T02:31:42;90.18;;;84.03;;
1140;SDS011;559;48.628;8.924;2022-09-12T02:34:15;88.05;;;81.95;;
1140;SDS011;559;48.628;8.924;2022-09-12T02:36:48;84.90;;;79.10;;
1140;SDS011;559;48.628;8.924;2022-09-12T02:39:18;85.70;;;79.80;;
1140;SDS011;559;48.628;8.924;2022-09-12T02:41:45;89.88;;;83.88;;
1140;SDS011;559;48.628;8.924;2022-09-12T02:44:12;81.50;;;75.55;;
1140;SDS011;559;48.628;8.924;2022-09-12T02:46:40;83.40;;;77.60;;
1140;SDS011;559;48.628;8.924;2022-09-12T02:49:08;83.32;;;77.90;;
1140;SDS011;559;48.628;8.924;2022-09-12T02:51:37;76.85;;;71.65;;
1140;SDS011;559;48.628;8.924;2022-09-12T02:54:03;84.65;;;79.05;;
1140;SDS011;559;48.628;8.924;2022-09-12T02:56:31;81.97;;;76.45;;
1140;SDS011;559;48.628;8.924;2022-09-12T02:58:59;83.55;;;78.05;;
1140;SDS011;559;48.628;8.924;2022-09-12T03:01:29;85.57;;;79.97;;
1140;SDS011;559;48.628;8.924;2022-09-12T03:07:06;88.32;;;82.47;;
1140;SDS011;559;48.628;8.924;2022-09-12T03:09:38;83.95;;;78.05;;
1140;SDS011;559;48.628;8.924;2022-09-12T03:12:12;84.72;;;78.85;;
1140;SDS011;559;48.628;8.924;2022-09-12T03:14:58;87.10;;;81.10;;
1140;SDS011;559;48.628;8.924;2022-09-12T03:17:36;85.55;;;79.65;;
1140;SDS011;559;48.628;8.924;2022-09-12T03:20:09;94.85;;;88.75;;
1140;SDS011;559;48.628;8.924;2022-09-12T03:22:40;88.88;;;82.97;;
1140;SDS011;559;48.628;8.924;2022-09-12T03:25:15;90.93;;;84.70;;
1140;SDS011;559;48.628;8.924;2022-09-12T03:27:44;92.05;;;85.85;;
1140;SDS011;559;48.628;8.924;2022-09-12T03:30:15;91.47;;;85.47;;
1140;SDS011;559;48.628;8.924;2022-09-12T03:32:43;95.68;;;89.47;;
1140;SDS011;559;48.628;8.924;2022-09-12T03:35:10;83.47;;;77.57;;
1140;SDS011;559;48.628;8.924;2022-09-12T03:37:39;90.00;;;83.97;;
1140;SDS011;559;48.628;8.924;2022-09-12T03:40:06;94.22;;;87.82;;
1140;SDS011;559;48.628;8.924;2022-09-12T03:42:33;97.18;;;90.65;;
1140;SDS011;559;48.628;8.924;2022-09-12T03:45:00;88.32;;;82.25;;
1140;SDS011;559;48.628;8.924;2022-09-12T03:47:26;89.80;;;83.90;;
1140;SDS011;559;48.628;8.924;2022-09-12T03:49:53;85.00;;;79.10;;
1140;SDS011;559;48.628;8.924;2022-09-12T03:52:19;87.45;;;81.28;;
1140;SDS011;559;48.628;8.924;2022-09-12T03:54:48;85.00;;;79.15;;
1140;SDS011;559;48.628;8.924;2022-09-12T03:57:14;86.63;;;80.93;;
1140;SDS011;559;48.628;8.924;2022-09-12T03:59:41;88.80;;;82.90;;
1140;SDS011;559;48.628;8.924;2022-09-12T04:02:07;92.63;;;86.65;;
1140;SDS011;559;48.628;8.924;2022-09-12T04:04:36;94.07;;;87.78;;
1140;SDS011;559;48.628;8.924;2022-09-12T04:07:03;94.47;;;88.40;;
1140;SDS011;559;48.628;8.924;2022-09-12T04:09:29;88.05;;;82.15;;
1140;SDS011;559;48.628;8.924;2022-09-12T04:11:57;93.57;;;87.43;;
1140;SDS011;559;48.628;8.924;2022-09-12T04:14:23;89.80;;;83.68;;
1140;SDS011;559;48.628;8.924;2022-09-12T04:16:50;98.97;;;92.68;;
1140;SDS011;559;48.628;8.924;2022-09-12T04:19:16;98.65;;;92.38;;
1140;SDS011;559;48.628;8.924;2022-09-12T04:21:43;91.57;;;85.78;;
1140;SDS011;559;48.628;8.924;2022-09-12T04:24:09;94.85;;;88.60;;
1140;SDS011;559;48.628;8.924;2022-09-12T04:26:36;98.03;;;91.78;;
1140;SDS011;559;48.628;8.924;2022-09-12T04:29:04;102.90;;;96.55;;
1140;SDS011;559;48.628;8.924;2022-09-12T04:31:30;102.63;;;96.22;;
1140;SDS011;559;48.628;8.924;2022-09-12T04:33:57;98.45;;;91.55;;
1140;SDS011;559;48.628;8.924;2022-09-12T04:36:25;97.82;;;91.03;;
1140;SDS011;559;48.628;8.924;2022-09-12T04:38:52;95.43;;;87.82;;
1140;SDS011;559;48.628;8.924;2022-09-12T04:41:20;93.50;;;86.50;;
1140;SDS011;559;48.628;8.924;2022-09-12T04:43:50;90.38;;;84.13;;
1140;SDS011;559;48.628;8.924;2022-09-12T04:46:19;97.18;;;90.57;;
1140;SDS011;559;48.628;8.924;2022-09-12T04:48:46;101.55;;;94.90;;
1140;SDS011;559;48.628;8.924;2022-09-12T04:51:14;100.15;;;93.63;;
1140;SDS011;559;48.628;8.924;2022-09-12T04:53:42;95.38;;;89.03;;
1140;SDS011;559;48.628;8.924;2022-09-12T04:56:09;93.80;;;87.60;;
1140;SDS011;559;48.628;8.924;2022-09-12T04:58:36;102.72;;;96.28;;
1140;SDS011;559;48.628;8.924;2022-09-12T05:01:04;97.15;;;90.78;;
1140;SDS011;559;48.628;8.924;2022-09-12T05:03:32;96.00;;;89.57;;
1140;SDS011;559;48.628;8.924;2022-09-12T05:06:00;90.50;;;84.10;;
1140;SDS011;559;48.628;8.924;2022-09-12T05:08:27;95.88;;;89.28;;
1140;SDS011;559;48.628;8.924;2022-09-12T05:10:56;93.13;;;86.55;;
1140;SDS011;559;48.628;8.924;2022-09-12T05:13:27;102.75;;;95.88;;
1140;SDS011;559;48.628;8.924;2022-09-12T05:15:54;98.18;;;91.35;;
1140;SDS011;559;48.628;8.924;2022-09-12T05:18:21;102.32;;;95.43;;
1140;SDS011;559;48.628;8.924;2022-09-12T05:20:48;98.82;;;92.00;;
1140;SDS011;559;48.628;8.924;2022-09-12T05:23:15;97.93;;;91.22;;
1140;SDS011;559;48.628;8.924;2022-09-12T05:25:46;95.50;;;88.88;;
1140;SDS011;559;48.628;8.924;2022-09-12T05:28:13;99.75;;;93.05;;
1140;SDS011;559;48.628;8.924;2022-09-12T05:30:40;97.70;;;91.20;;
1140;SDS011;559;48.628;8.924;2022-09-12T05:33:06;92.35;;;85.95;;
1140;SDS011;559;48.628;8.924;2022-09-12T05:35:33;92.60;;;86.10;;
1140;SDS011;559;48.628;8.924;2022-09-12T05:38:03;92.93;;;86.38;;
1140;SDS011;559;48.628;8.924;2022-09-12T05:40:30;94.22;;;87.72;;
1140;SDS011;559;48.628;8.924;2022-09-12T05:42:56;92.55;;;86.07;;
1140;SDS011;559;48.628;8.924;2022-09-12T05:45:23;90.50;;;84.10;;
1140;SDS011;559;48.628;8.924;2022-09-12T05:47:51;91.15;;;84.72;;
1140;SDS011;559;48.628;8.924;2022-09-12T05:50:18;97.68;;;91.10;;
1140;SDS011;559;48.628;8.924;2022-09-12T05:52:44;88.57;;;82.40;;
1140;SDS011;559;48.628;8.924;2022-09-12T05:55:13;90.18;;;83.93;;
1140;SDS011;559;48.628;8.924;2022-09-12T05:57:42;89.53;;;83.13;;
1140;SDS011;559;48.628;8.924;2022-09-12T06:00:10;94.30;;;87.95;;
1140;SDS011;559;48.628;8.924;2022-09-12T06:02:38;96.25;;;89.80;;
1140;SDS011;559;48.628;8.924;2022-09-12T06:05:05;93.38;;;86.75;;
1140;SDS011;559;48.628;8.924;2022-09-12T06:07:32;95.47;;;89.05;;
1140;SDS011;559;48.628;8.924;2022-09-12T06:09:59;97.78;;;91.18;;
1140;SDS011;559;48.628;8.924;2022-09-12T06:12:28;93.07;;;86.70;;
1140;SDS011;559;48.628;8.924;2022-09-12T06:14:55;89.75;;;83.40;;
1140;SDS011;559;48.628;8.924;2022-09-12T06:17:21;86.97;;;80.68;;
1140;SDS011;559;48.628;8.924;2022-09-12T06:19:48;85.40;;;79.20;;
1140;SDS011;559;48.628;8.924;2022-09-12T06:22:15;86.70;;;80.28;;
1140;SDS011;559;48.628;8.924;2022-09-12T06:24:45;85.15;;;78.90;;
1140;SDS011;559;48.628;8.924;2022-09-12T06:27:11;85.25;;;78.85;;
1140;SDS011;559;48.628;8.924;2022-09-12T06:29:39;82.85;;;76.00;;
1140;SDS011;559;48.628;8.924;2022-09-12T06:32:05;84.50;;;78.05;;
1140;SDS011;559;48.628;8.924;2022-09-12T06:34:33;87.25;;;80.65;;
1140;SDS011;559;48.628;8.924;2022-09-12T06:37:00;88.43;;;82.20;;
1140;SDS011;559;48.628;8.924;2022-09-12T06:39:28;87.25;;;80.85;;
1140;SDS011;559;48.628;8.924;2022-09-12T06:41:55;85.25;;;78.43;;
1140;SDS011;559;48.628;8.924;2022-09-12T06:44:22;87.78;;;81.30;;
1140;SDS011;559;48.628;8.924;2022-09-12T06:46:49;95.45;;;88.65;;
1140;SDS011;559;48.628;8.924;2022-09-12T06:49:17;88.40;;;81.88;;
1140;SDS011;559;48.628;8.924;2022-09-12T06:51:44;90.85;;;83.75;;
1140;SDS011;559;48.628;8.924;2022-09-12T06:54:11;95.40;;;88.82;;
1140;SDS011;559;48.628;8.924;2022-09-12T06:56:38;89.88;;;83.35;;
1140;SDS011;559;48.628;8.924;2022-09-12T06:59:04;91.93;;;85.30;;
1140;SDS011;559;48.628;8.924;2022-09-12T07:01:31;97.10;;;89.90;;
1140;SDS011;559;48.628;8.924;2022-09-12T07:04:00;97.43;;;90.63;;
1140;SDS011;559;48.628;8.924;2022-09-12T07:06:28;100.20;;;93.22;;
1140;SDS011;559;48.628;8.924;2022-09-12T07:08:56;102.30;;;95.22;;
1140;SDS011;559;48.628;8.924;2022-09-12T07:11:24;101.40;;;94.20;;
1140;SDS011;559;48.628;8.924;2022-09-12T07:13:52;101.65;;;94.55;;
1140;SDS011;559;48.628;8.924;2022-09-12T07:16:20;98.57;;;90.97;;
1140;SDS011;559;48.628;8.924;2022-09-12T07:18:49;99.20;;;92.50;;
1140;SDS011;559;48.628;8.924;2022-09-12T07:21:17;95.82;;;89.35;;
1140;SDS011;559;48.628;8.924;2022-09-12T07:23:44;101.78;;;94.90;;
1140;SDS011;559;48.628;8.924;2022-09-12T07:26:11;99.00;;;92.35;;
1140;SDS011;559;48.628;8.924;2022-09-12T07:28:39;92.75;;;86.38;;
1140;SDS011;559;48.628;8.924;2022-09-12T07:31:06;98.95;;;91.85;;
1140;SDS011;559;48.628;8.924;2022-09-12T07:33:34;92.23;;;85.93;;
1140;SDS011;559;48.628;8.924;2022-09-12T07:36:01;90.83;;;84.53;;
1140;SDS011;559;48.628;8.924;2022-09-12T07:38:30;90.22;;;83.82;;
1140;SDS011;559;48.628;8.924;2022-09-12T07:40:56;90.10;;;83.90;;
1140;SDS011;559;48.628;8.924;2022-09-12T07:43:23;98.10;;;91.60;;
1140;SDS011;559;48.628;8.924;2022-09-12T07:45:53;93.40;;;86.80;;
1140;SDS011;559;48.628;8.924;2022-09-12T07:48:20;92.27;;;85.97;;
1140;SDS011;559;48.628;8.924;2022-09-12T07:50:47;92.40;;;86.20;;
1140;SDS011;559;48.628;8.924;2022-09-12T07:53:22;90.60;;;84.50;;
1140;SDS011;559;48.628;8.924;2022-09-12T07:55:52;94.33;;;88.20;;
1140;SDS011;559;48.628;8.924;2022-09-12T07:58:19;86.30;;;80.07;;
1140;SDS011;559;48.628;8.924;2022-09-12T08:00:46;82.77;;;77.07;;
1140;SDS011;559;48.628;8.924;2022-09-12T08:03:12;84.30;;;78.40;;
1140;SDS011;559;48.628;8.924;2022-09-12T08:05:39;83.93;;;78.13;;
1140;SDS011;559;48.628;8.924;2022-09-12T08:08:05;79.50;;;73.60;;
1140;SDS011;559;48.628;8.924;2022-09-12T08:10:32;71.30;;;66.30;;
1140;SDS011;559;48.628;8.924;2022-09-12T08:13:00;76.10;;;70.90;;
1140;SDS011;559;48.628;8.924;2022-09-12T08:15:27;71.27;;;66.27;;
1140;SDS011;559;48.628;8.924;2022-09-12T08:17:53;64.43;;;60.03;;
1140;SDS011;559;48.628;8.924;2022-09-12T08:20:20;66.47;;;61.77;;
1140;SDS011;559;48.628;8.924;2022-09-12T08:22:46;66.10;;;61.10;;
1140;SDS011;559;48.628;8.924;2022-09-12T08:25:13;65.23;;;60.73;;
1140;SDS011;559;48.628;8.924;2022-09-12T08:27:40;65.10;;;60.40;;
1140;SDS011;559;48.628;8.924;2022-09-12T08:30:09;63.10;;;58.57;;
1140;SDS011;559;48.628;8.924;2022-09-12T08:32:36;60.87;;;56.77;;
1140;SDS011;559;48.628;8.924;2022-09-12T08:35:03;61.93;;;57.70;;
1140;SDS011;559;48.628;8.924;2022-09-12T08:37:30;59.37;;;55.37;;
1140;SDS011;559;48.628;8.924;2022-09-12T08:39:56;61.80;;;57.50;;
1140;SDS011;559;48.628;8.924;2022-09-12T08:42:24;62.47;;;57.93;;
1140;SDS011;559;48.628;8.924;2022-09-12T08:45:04;62.00;;;57.70;;
1140;SDS011;559;48.628;8.924;2022-09-12T08:47:36;65.10;;;60.13;;
1140;SDS011;559;48.628;8.924;2022-09-12T08:50:11;63.70;;;59.07;;
1140;SDS011;559;48.628;8.924;2022-09-12T08:52:43;59.30;;;55.00;;
1140;SDS011;559;48.628;8.924;2022-09-12T08:55:25;57.33;;;53.63;;
1140;SDS011;559;48.628;8.924;2022-09-12T08:57:55;57.80;;;54.00;;
1140;SDS011;559;48.628;8.924;2022-09-12T09:00:25;55.90;;;52.33;;
1140;SDS011;559;48.628;8.924;2022-09-12T09:03:03;55.83;;;52.40;;
1140;SDS011;559;48.628;8.924;2022-09-12T09:05:44;52.13;;;49.00;;
1140;SDS011;559;48.628;8.924;2022-09-12T09:08:18;51.00;;;48.20;;
1140;SDS011;559;48.628;8.924;2022-09-12T09:11:03;48.63;;;46.27;;
1140;SDS011;559;48.628;8.924;2022-09-12T09:13:36;46.37;;;44.27;;
1140;SDS011;559;48.628;8.924;2022-09-12T09:16:29;46.50;;;44.30;;
1140;SDS011;559;48.628;8.924;2022-09-12T09:18:57;44.20;;;42.50;;
1140;SDS011;559;48.628;8.924;2022-09-12T09:21:28;45.43;;;43.93;;
1140;SDS011;559;48.628;8.924;2022-09-12T09:23:59;49.17;;;47.70;;
1140;SDS011;559;48.628;8.924;2022-09-12T09:26:29;52.60;;;51.03;;
1140;SDS011;559;48.628;8.924;2022-09-12T09:29:10;56.00;;;54.43;;
1140;SDS011;559;48.628;8.924;2022-09-12T09:31:41;56.80;;;55.20;;
1140;SDS011;559;48.628;8.924;2022-09-12T09:34:09;40.57;;;39.30;;
1140;SDS011;559;48.628;8.924;2022-09-12T09:36:42;54.30;;;52.63;;
1140;SDS011;559;48.628;8.924;2022-09-12T09:39:15;52.00;;;50.17;;
1140;SDS011;559;48.628;8.924;2022-09-12T09:41:51;48.10;;;46.80;;
1140;SDS011;559;48.628;8.924;2022-09-12T09:44:35;44.00;;;42.70;;
1140;SDS011;559;48.628;8.924;2022-09-12T09:47:03;41.43;;;40.30;;
1140;SDS011;559;48.628;8.924;2022-09-12T09:49:31;40.43;;;39.33;;
1140;SDS011;559;48.628;8.924;2022-09-12T09:52:00;30.80;;;29.90;;
1140;SDS011;559;48.628;8.924;2022-09-12T09:54:30;17.57;;;17.07;;
1140;SDS011;559;48.628;8.924;2022-09-12T09:57:00;25.07;;;24.07;;
1140;SDS011;559;48.628;8.924;2022-09-12T09:59:29;27.57;;;26.83;;
1140;SDS011;559;48.628;8.924;2022-09-12T10:01:58;21.87;;;21.27;;
1140;SDS011;559;48.628;8.924;2022-09-12T10:04:29;18.17;;;17.67;;
1140;SDS011;559;48.628;8.924;2022-09-12T10:06:57;12.30;;;11.97;;
1140;SDS011;559;48.628;8.924;2022-09-12T10:09:25;13.27;;;12.73;;
1140;SDS011;559;48.628;8.924;2022-09-12T10:11:53;11.87;;;11.47;;
1140;SDS011;559;48.628;8.924;2022-09-12T10:14:26;11.50;;;11.10;;
1140;SDS011;559;48.628;8.924;2022-09-12T10:17:02;9.70;;;9.40;;
1140;SDS011;559;48.628;8.924;2022-09-12T10:19:47;9.53;;;9.13;;
1140;SDS011;559;48.628;8.924;2022-09-12T10:22:16;6.67;;;6.30;;
1140;SDS011;559;48.628;8.924;2022-09-12T10:24:46;5.53;;;5.33;;
1140;SDS011;559;48.628;8.924;2022-09-12T10:27:17;5.30;;;5.10;;
1140;SDS011;559;48.628;8.924;2022-09-12T10:29:46;3.70;;;3.50;;
1140;SDS011;559;48.628;8.924;2022-09-12T10:32:23;2.90;;;2.60;;
1140;SDS011;559;48.628;8.924;2022-09-12T10:34:55;2.50;;;2.37;;
1140;SDS011;559;48.628;8.924;2022-09-12T10:37:27;1.77;;;1.67;;
1140;SDS011;559;48.628;8.924;2022-09-12T10:39:57;1.80;;;1.70;;
1140;SDS011;559;48.628;8.924;2022-09-12T10:45:23;1.63;;;1.43;;
1140;SDS011;559;48.628;8.924;2022-09-12T10:47:52;1.87;;;1.77;;
1140;SDS011;559;48.628;8.924;2022-09-12T10:50:21;1.40;;;1.30;;
1140;SDS011;559;48.628;8.924;2022-09-12T10:52:50;1.63;;;1.10;;
1140;SDS011;559;48.628;8.924;2022-09-12T10:55:17;2.53;;;1.87;;
1140;SDS011;559;48.628;8.924;2022-09-12T11:00:35;1.40;;;1.23;;
1140;SDS011;559;48.628;8.924;2022-09-12T11:03:05;1.40;;;1.30;;
1140;SDS011;559;48.628;8.924;2022-09-12T11:05:45;1.60;;;1.10;;
1140;SDS011;559;48.628;8.924;2022-09-12T11:08:20;1.77;;;1.00;;
1140;SDS011;559;48.628;8.924;2022-09-12T11:10:54;2.13;;;1.50;;
1140;SDS011;559;48.628;8.924;2022-09-12T11:13:42;1.10;;;0.80;;
1140;SDS011;559;48.628;8.924;2022-09-12T11:16:17;1.30;;;1.03;;
1140;SDS011;559;48.628;8.924;2022-09-12T11:18:57;1.30;;;1.10;;
1140;SDS011;559;48.628;8.924;2022-09-12T11:21:37;1.30;;;1.20;;
1140;SDS011;559;48.628;8.924;2022-09-12T11:24:14;1.40;;;1.10;;
1140;SDS011;559;48.628;8.924;2022-09-12T11:26:49;1.17;;;1.00;;
1140;SDS011;559;48.628;8.924;2022-09-12T11:29:31;1.60;;;1.07;;
1140;SDS011;559;48.628;8.924;2022-09-12T11:32:12;1.27;;;1.17;;
1140;SDS011;559;48.628;8.924;2022-09-12T11:34:54;1.30;;;1.00;;
1140;SDS011;559;48.628;8.924;2022-09-12T11:37:33;2.20;;;1.30;;
1140;SDS011;559;48.628;8.924;2022-09-12T11:40:16;1.10;;;1.00;;
1140;SDS011;559;48.628;8.924;2022-09-12T11:42:49;1.40;;;1.30;;
1140;SDS011;559;48.628;8.924;2022-09-12T11:45:18;2.40;;;1.40;;
1140;SDS011;559;48.628;8.924;2022-09-12T11:47:49;2.13;;;1.20;;
1140;SDS011;559;48.628;8.924;2022-09-12T11:50:19;1.03;;;0.90;;
1140;SDS011;559;48.628;8.924;2022-09-12T11:52:51;1.20;;;0.90;;
1140;SDS011;559;48.628;8.924;2022-09-12T11:55:19;1.30;;;1.20;;
1140;SDS011;559;48.628;8.924;2022-09-12T11:57:49;1.30;;;1.10;;
1140;SDS011;559;48.628;8.924;2022-09-12T12:00:20;1.40;;;0.70;;
1140;SDS011;559;48.628;8.924;2022-09-12T12:02:54;1.00;;;0.70;;
1140;SDS011;559;48.628;8.924;2022-09-12T12:05:24;2.60;;;0.67;;
1140;SDS011;559;48.628;8.924;2022-09-12T12:07:58;1.10;;;0.80;;
1140;SDS011;559;48.628;8.924;2022-09-12T12:10:28;1.00;;;0.80;;
1140;SDS011;559;48.628;8.924;2022-09-12T12:12:58;1.30;;;0.80;;
1140;SDS011;559;48.628;8.924;2022-09-12T12:15:26;1.13;;;0.70;;
1140;SDS011;559;48.628;8.924;2022-09-12T12:18:00;1.00;;;0.77;;
1140;SDS011;559;48.628;8.924;2022-09-12T12:20:27;1.03;;;0.90;;
1140;SDS011;559;48.628;8.924;2022-09-12T12:22:54;1.47;;;0.80;;
1140;SDS011;559;48.628;8.924;2022-09-12T12:25:23;1.17;;;1.00;;
1140;SDS011;559;48.628;8.924;2022-09-12T12:27:52;0.90;;;0.50;;
1140;SDS011;559;48.628;8.924;2022-09-12T12:36:28;1.10;;;0.67;;
1140;SDS011;559;48.628;8.924;2022-09-12T12:39:01;1.00;;;0.53;;
1140;SDS011;559;48.628;8.924;2022-09-12T12:51:35;1.30;;;0.70;;
1140;SDS011;559;48.628;8.924;2022-09-12T12:54:25;1.77;;;0.60;;
1140;SDS011;559;48.628;8.924;2022-09-12T12:57:00;1.40;;;0.97;;
1140;SDS011;559;48.628;8.924;2022-09-12T12:59:28;1.20;;;0.80;;
1140;SDS011;559;48.628;8.924;2022-09-12T13:01:56;1.00;;;0.80;;
1140;SDS011;559;48.628;8.924;2022-09-12T13:04:24;1.97;;;0.70;;
1140;SDS011;559;48.628;8.924;2022-09-12T13:06:56;0.90;;;0.60;;
1140;SDS011;559;48.628;8.924;2022-09-12T13:09:25;1.40;;;1.03;;
1140;SDS011;559;48.628;8.924;2022-09-12T13:11:57;1.70;;;0.60;;
1140;SDS011;559;48.628;8.924;2022-09-12T13:17:19;0.97;;;0.60;;
1140;SDS011;559;48.628;8.924;2022-09-12T13:19:50;1.10;;;0.67;;
1140;SDS011;559;48.628;8.924;2022-09-12T13:22:18;1.00;;;0.70;;
1140;SDS011;559;48.628;8.924;2022-09-12T13:24:47;1.10;;;0.70;;
1140;SDS011;559;48.628;8.924;2022-09-12T13:27:17;1.00;;;0.60;;
1140;SDS011;559;48.628;8.924;2022-09-12T13:29:44;1.10;;;0.90;;
1140;SDS011;559;48.628;8.924;2022-09-12T13:32:11;1.37;;;0.77;;
1140;SDS011;559;48.628;8.924;2022-09-12T13:34:42;1.23;;;0.80;;
1140;SDS011;559;48.628;8.924;2022-09-12T13:37:24;1.00;;;0.70;;
1140;SDS011;559;48.628;8.924;2022-09-12T13:39:58;1.00;;;0.60;;
1140;SDS011;559;48.628;8.924;2022-09-12T13:42:37;0.90;;;0.60;;
1140;SDS011;559;48.628;8.924;2022-09-12T13:45:06;1.20;;;0.70;;
1140;SDS011;559;48.628;8.924;2022-09-12T13:47:38;1.00;;;0.60;;
1140;SDS011;559;48.628;8.924;2022-09-12T13:50:12;2.03;;;1.10;;
1140;SDS011;559;48.628;8.924;2022-09-12T13:52:41;1.40;;;0.93;;
1140;SDS011;559;48.628;8.924;2022-09-12T13:55:13;1.10;;;0.73;;
1140;SDS011;559;48.628;8.924;2022-09-12T13:57:54;1.10;;;0.90;;
1140;SDS011;559;48.628;8.924;2022-09-12T14:00:22;2.13;;;1.13;;
1140;SDS011;559;48.628;8.924;2022-09-12T14:02:49;1.40;;;1.17;;
1140;SDS011;559;48.628;8.924;2022-09-12T14:05:37;1.57;;;0.83;;
1140;SDS011;559;48.628;8.924;2022-09-12T14:08:05;1.40;;;1.30;;
1140;SDS011;559;48.628;8.924;2022-09-12T14:10:33;4.43;;;0.90;;
1140;SDS011;559;48.628;8.924;2022-09-12T14:13:00;1.30;;;1.10;;
1140;SDS011;559;48.628;8.924;2022-09-12T14:15:30;1.77;;;0.87;;
1140;SDS011;559;48.628;8.924;2022-09-12T14:17:58;1.83;;;0.80;;
1140;SDS011;559;48.628;8.924;2022-09-12T14:20:26;1.00;;;0.87;;
1140;SDS011;559;48.628;8.924;2022-09-12T14:22:58;1.10;;;1.00;;
1140;SDS011;559;48.628;8.924;2022-09-12T14:25:26;1.10;;;0.83;;
1140;SDS011;559;48.628;8.924;2022-09-12T14:27:56;1.30;;;0.90;;
1140;SDS011;559;48.628;8.924;2022-09-12T14:30:24;1.60;;;1.50;;
1140;SDS011;559;48.628;8.924;2022-09-12T14:33:04;1.10;;;1.00;;
1140;SDS011;559;48.628;8.924;2022-09-12T14:35:42;1.60;;;1.50;;
1140;SDS011;559;48.628;8.924;2022-09-12T14:38:13;2.07;;;1.10;;
1140;SDS011;559;48.628;8.924;2022-09-12T14:40:47;1.50;;;1.40;;
1140;SDS011;559;48.628;8.924;2022-09-12T14:43:18;1.37;;;1.27;;
1140;SDS011;559;48.628;8.924;2022-09-12T14:45:52;2.40;;;1.03;;
1140;SDS011;559;48.628;8.924;2022-09-12T14:48:19;1.27;;;1.17;;
1140;SDS011;559;48.628;8.924;2022-09-12T14:50:47;1.30;;;1.00;;
1140;SDS011;559;48.628;8.924;2022-09-12T14:53:21;1.17;;;1.07;;
1140;SDS011;559;48.628;8.924;2022-09-12T14:55:50;1.63;;;1.10;;
1140;SDS011;559;48.628;8.924;2022-09-12T14:58:21;1.90;;;1.17;;
1140;SDS011;559;48.628;8.924;2022-09-12T15:00:59;1.13;;;0.90;;
1140;SDS011;559;48.628;8.924;2022-09-12T15:03:28;1.60;;;1.27;;
1140;SDS011;559;48.628;8.924;2022-09-12T15:05:56;1.60;;;1.17;;
1140;SDS011;559;48.628;8.924;2022-09-12T15:08:25;2.80;;;1.70;;
1140;SDS011;559;48.628;8.924;2022-09-12T15:10:51;3.17;;;1.70;;
1140;SDS011;559;48.628;8.924;2022-09-12T15:13:20;2.07;;;1.30;;
1140;SDS011;559;48.628;8.924;2022-09-12T15:15:48;1.73;;;1.33;;
1140;SDS011;559;48.628;8.924;2022-09-12T15:18:16;1.43;;;1.33;;
1140;SDS011;559;48.628;8.924;2022-09-12T15:20:43;1.20;;;1.00;;
1140;SDS011;559;48.628;8.924;2022-09-12T15:23:13;1.47;;;1.37;;
1140;SDS011;559;48.628;8.924;2022-09-12T15:25:44;1.80;;;1.27;;
1140;SDS011;559;48.628;8.924;2022-09-12T15:28:12;1.40;;;1.20;;
1140;SDS011;559;48.628;8.924;2022-09-12T15:30:41;1.57;;;1.33;;
1140;SDS011;559;48.628;8.924;2022-09-12T15:33:08;1.60;;;1.13;;
1140;SDS011;559;48.628;8.924;2022-09-12T15:35:36;1.17;;;1.00;;
1140;SDS011;559;48.628;8.924;2022-09-12T15:38:03;1.80;;;1.20;;
1140;SDS011;559;48.628;8.924;2022-09-12T15:40:29;2.43;;;1.00;;
1140;SDS011;559;48.628;8.924;2022-09-12T15:42:57;1.10;;;1.00;;
1140;SDS011;559;48.628;8.924;2022-09-12T15:45:25;1.10;;;0.83;;
1140;SDS011;559;48.628;8.924;2022-09-12T15:47:52;1.57;;;1.20;;
1140;SDS011;559;48.628;8.924;2022-09-12T15:50:19;1.47;;;1.17;;
1140;SDS011;559;48.628;8.924;2022-09-12T15:52:46;2.13;;;1.23;;
1140;SDS011;559;48.628;8.924;2022-09-12T15:55:14;2.03;;;1.50;;